createdAt,value
2019-03-29T00:01:41.313Z,12.65
2019-03-29T00:04:10.078Z,14.50
2019-03-29T00:06:38.782Z,12.13
2019-03-29T00:09:07.817Z,13.62
2019-03-29T00:11:36.585Z,16.77
2019-03-29T00:14:05.034Z,15.28
2019-03-29T00:16:33.602Z,12.90
2019-03-29T00:19:02.340Z,11.05
2019-03-29T00:21:31.194Z,15.25
2019-03-29T00:24:06.539Z,13.90
2019-03-29T00:26:29.794Z,13.70
2019-03-29T00:28:58.236Z,14.75
2019-03-29T00:31:26.670Z,12.30
2019-03-29T00:33:55.381Z,11.80
2019-03-29T00:36:23.809Z,12.45
2019-03-29T00:38:52.253Z,13.08
2019-03-29T00:41:40.022Z,16.30
2019-03-29T00:44:08.480Z,12.10
2019-03-29T00:46:37.190Z,13.93
2019-03-29T00:49:06.349Z,13.48
2019-03-29T00:51:34.785Z,13.18
2019-03-29T00:54:03.485Z,14.43
2019-03-29T00:56:31.909Z,12.88
2019-03-29T00:59:00.358Z,13.15
2019-03-29T01:01:28.797Z,13.70
2019-03-29T01:03:57.369Z,12.07
2019-03-29T01:06:26.092Z,13.03
2019-03-29T01:08:54.530Z,13.10
2019-03-29T01:11:22.961Z,13.98
2019-03-29T01:13:51.409Z,12.58
2019-03-29T01:16:19.839Z,12.35
2019-03-29T01:18:48.288Z,14.03
2019-03-29T01:21:16.714Z,13.60
2019-03-29T01:23:45.156Z,13.55
2019-03-29T01:26:13.591Z,11.60
2019-03-29T01:28:42.040Z,14.18
2019-03-29T01:31:10.470Z,12.93
2019-03-29T01:33:38.902Z,14.53
2019-03-29T01:36:07.658Z,12.73
2019-03-29T01:38:36.455Z,12.20
2019-03-29T01:41:05.037Z,11.20
2019-03-29T01:43:33.468Z,12.47
2019-03-29T01:46:01.990Z,13.20
2019-03-29T01:48:30.417Z,12.00
2019-03-29T01:50:59.161Z,11.68
2019-03-29T01:53:27.666Z,10.23
2019-03-29T01:55:56.107Z,12.68
2019-03-29T01:58:25.169Z,10.40
2019-03-29T02:00:53.950Z,12.70
2019-03-29T02:03:22.389Z,13.85
2019-03-29T02:05:51.182Z,13.48
2019-03-29T02:08:19.621Z,11.33
2019-03-29T02:10:49.000Z,11.10
2019-03-29T02:13:17.574Z,12.60
2019-03-29T02:15:46.018Z,12.05
2019-03-29T02:18:14.449Z,11.48
2019-03-29T02:20:43.264Z,10.05
2019-03-29T02:23:12.091Z,12.33
2019-03-29T02:25:40.543Z,11.73
2019-03-29T02:28:08.975Z,11.78
2019-03-29T02:30:37.594Z,13.68
2019-03-29T02:33:06.025Z,14.15
2019-03-29T02:35:34.467Z,10.75
2019-03-29T02:38:02.979Z,13.28
2019-03-29T02:40:31.498Z,11.15
2019-03-29T02:42:59.946Z,15.53
2019-03-29T02:45:30.470Z,11.53
2019-03-29T02:47:58.892Z,9.13
2019-03-29T02:50:27.331Z,9.45
2019-03-29T02:52:55.764Z,10.25
2019-03-29T02:55:24.551Z,10.05
2019-03-29T02:57:52.979Z,10.88
2019-03-29T03:00:21.678Z,11.68
2019-03-29T03:02:50.111Z,10.75
2019-03-29T03:05:18.559Z,12.00
2019-03-29T03:07:47.008Z,12.82
2019-03-29T03:10:15.878Z,11.90
2019-03-29T03:12:44.320Z,14.23
2019-03-29T03:15:13.775Z,13.45
2019-03-29T03:17:42.198Z,11.83
2019-03-29T03:20:15.381Z,11.38
2019-03-29T03:22:44.242Z,14.58
2019-03-29T03:25:13.198Z,11.55
2019-03-29T03:27:41.640Z,12.28
2019-03-29T03:30:12.089Z,14.03
2019-03-29T03:32:40.532Z,12.43
2019-03-29T03:35:10.031Z,16.15
2019-03-29T03:37:38.565Z,13.62
2019-03-29T03:40:07.932Z,15.05
2019-03-29T03:42:36.451Z,15.53
2019-03-29T03:45:09.505Z,12.30
2019-03-29T03:47:39.952Z,12.28
2019-03-29T03:50:11.527Z,12.50
2019-03-29T03:52:40.417Z,13.55
2019-03-29T03:55:08.830Z,13.62
2019-03-29T03:57:39.272Z,12.47
2019-03-29T04:00:09.541Z,17.05
2019-03-29T04:02:38.022Z,16.77
2019-03-29T04:05:07.071Z,16.00
2019-03-29T04:07:35.567Z,14.28
2019-03-29T04:10:06.449Z,16.57
2019-03-29T04:12:34.889Z,17.00
2019-03-29T04:15:03.769Z,18.00
2019-03-29T04:17:32.218Z,14.95
2019-03-29T04:20:00.696Z,16.42
2019-03-29T04:22:29.274Z,15.32
2019-03-29T04:24:57.703Z,12.98
2019-03-29T04:27:26.166Z,15.43
2019-03-29T04:29:54.622Z,14.70
2019-03-29T04:32:23.079Z,14.63
2019-03-29T04:34:51.534Z,14.80
2019-03-29T04:37:19.966Z,14.38
2019-03-29T04:40:05.786Z,14.40
2019-03-29T04:42:18.590Z,15.05
2019-03-29T04:44:47.033Z,16.77
2019-03-29T04:47:15.486Z,14.38
2019-03-29T04:49:43.913Z,13.50
2019-03-29T04:52:12.353Z,13.22
2019-03-29T04:54:40.784Z,15.08
2019-03-29T04:57:09.493Z,12.47
2019-03-29T04:59:37.925Z,11.75
2019-03-29T05:02:06.449Z,13.90
2019-03-29T05:04:34.873Z,10.72
2019-03-29T05:07:03.343Z,11.65
2019-03-29T05:09:31.833Z,12.90
2019-03-29T05:12:00.644Z,12.63
2019-03-29T05:14:29.081Z,11.65
2019-03-29T05:16:57.777Z,11.50
2019-03-29T05:19:26.231Z,13.65
2019-03-29T05:21:55.109Z,16.23
2019-03-29T05:24:23.538Z,16.10
2019-03-29T05:26:51.969Z,16.23
2019-03-29T05:29:20.417Z,14.87
2019-03-29T05:31:48.849Z,13.68
2019-03-29T05:34:17.297Z,14.55
2019-03-29T05:36:45.730Z,15.30
2019-03-29T05:39:14.181Z,14.07
2019-03-29T05:41:42.607Z,13.48
2019-03-29T05:44:11.049Z,14.15
2019-03-29T05:46:39.490Z,13.93
2019-03-29T05:49:07.938Z,13.95
2019-03-29T05:51:36.370Z,12.82
2019-03-29T05:54:05.190Z,12.33
2019-03-29T05:56:33.975Z,13.68
2019-03-29T05:59:02.426Z,13.45
2019-03-29T06:01:30.861Z,17.25
2019-03-29T06:03:59.314Z,12.03
2019-03-29T06:06:27.750Z,15.13
2019-03-29T06:08:56.214Z,16.12
2019-03-29T06:11:24.975Z,18.85
2019-03-29T06:13:53.417Z,13.55
2019-03-29T06:16:21.869Z,16.45
2019-03-29T06:18:50.382Z,13.83
2019-03-29T06:21:18.824Z,13.35
2019-03-29T06:23:47.582Z,12.65
2019-03-29T06:26:16.031Z,16.17
2019-03-29T06:28:44.542Z,17.15
2019-03-29T06:31:13.255Z,15.75
2019-03-29T06:33:44.371Z,16.85
2019-03-29T06:36:14.011Z,18.73
2019-03-29T06:38:44.147Z,14.95
2019-03-29T06:41:12.591Z,11.50
2019-03-29T06:43:41.038Z,11.55
2019-03-29T06:46:09.478Z,13.37
2019-03-29T06:48:37.937Z,11.22
2019-03-29T06:51:06.373Z,13.73
2019-03-29T06:53:34.827Z,15.55
2019-03-29T06:56:03.270Z,12.80
2019-03-29T06:58:31.705Z,17.27
2019-03-29T07:01:00.162Z,14.25
2019-03-29T07:03:28.606Z,14.05
2019-03-29T07:05:57.042Z,15.70
2019-03-29T07:08:25.482Z,16.87
2019-03-29T07:10:53.939Z,18.17
2019-03-29T07:13:22.550Z,15.45
2019-03-29T07:15:51.006Z,16.00
2019-03-29T07:18:19.513Z,17.62
2019-03-29T07:20:47.967Z,21.85
2019-03-29T07:23:16.401Z,23.40
2019-03-29T07:25:44.874Z,38.23
2019-03-29T07:28:13.316Z,19.98
2019-03-29T07:30:41.766Z,27.48
2019-03-29T07:33:10.202Z,24.47
2019-03-29T07:35:38.727Z,25.60
2019-03-29T07:38:07.171Z,21.90
2019-03-29T07:40:35.642Z,23.57
2019-03-29T07:43:04.427Z,22.62
2019-03-29T07:45:32.877Z,21.93
2019-03-29T07:48:01.315Z,23.40
2019-03-29T07:50:29.777Z,22.17
2019-03-29T07:52:58.206Z,24.92
2019-03-29T07:55:26.658Z,20.55
2019-03-29T07:57:55.097Z,22.45
2019-03-29T08:00:23.555Z,24.15
2019-03-29T08:02:51.983Z,22.10
2019-03-29T08:05:20.455Z,22.35
2019-03-29T08:07:48.885Z,24.70
2019-03-29T08:10:25.889Z,23.90
2019-03-29T08:12:49.289Z,21.85
2019-03-29T08:15:17.675Z,22.62
2019-03-29T08:17:46.118Z,23.83
2019-03-29T08:20:38.897Z,27.32
2019-03-29T08:22:44.890Z,19.10
2019-03-29T08:25:13.499Z,21.48
2019-03-29T08:27:41.930Z,20.48
2019-03-29T08:30:10.454Z,19.48
2019-03-29T08:32:38.894Z,17.82
2019-03-29T08:35:07.473Z,20.70
2019-03-29T08:37:35.927Z,16.67
2019-03-29T08:40:05.560Z,21.07
2019-03-29T08:42:34.082Z,18.52
2019-03-29T08:45:02.528Z,18.10
2019-03-29T08:47:30.979Z,17.73
2019-03-29T08:49:59.413Z,17.67
2019-03-29T08:52:27.884Z,17.87
2019-03-29T08:54:56.310Z,17.92
2019-03-29T08:57:24.782Z,20.17
2019-03-29T08:59:53.280Z,20.20
2019-03-29T09:02:24.880Z,19.65
2019-03-29T09:04:52.304Z,20.35
2019-03-29T09:07:20.775Z,21.27
2019-03-29T09:09:49.274Z,21.42
2019-03-29T09:12:17.807Z,21.60
2019-03-29T09:14:46.251Z,25.97
2019-03-29T09:17:14.713Z,24.57
2019-03-29T09:19:43.150Z,25.82
2019-03-29T09:22:11.918Z,25.20
2019-03-29T09:24:40.362Z,25.97
2019-03-29T09:27:08.895Z,24.45
2019-03-29T09:29:37.339Z,23.55
2019-03-29T09:32:06.130Z,23.07
2019-03-29T09:34:34.575Z,24.57
2019-03-29T09:37:03.049Z,22.55
2019-03-29T09:39:31.490Z,25.90
2019-03-29T09:41:59.966Z,23.42
2019-03-29T09:44:28.402Z,23.67
2019-03-29T09:46:57.158Z,22.15
2019-03-29T09:49:25.665Z,23.10
2019-03-29T09:51:54.186Z,25.68
2019-03-29T09:54:22.629Z,23.45
2019-03-29T09:56:51.085Z,21.70
2019-03-29T09:59:22.883Z,22.82
2019-03-29T10:01:53.645Z,21.50
2019-03-29T10:04:20.131Z,21.02
2019-03-29T10:06:48.595Z,22.00
2019-03-29T10:09:17.028Z,21.00
2019-03-29T10:11:45.491Z,20.10
2019-03-29T10:14:13.935Z,21.87
2019-03-29T10:16:42.399Z,22.95
2019-03-29T10:19:10.840Z,20.55
2019-03-29T10:21:39.295Z,20.65
2019-03-29T10:24:08.058Z,20.48
2019-03-29T10:26:36.518Z,20.00
2019-03-29T10:29:05.027Z,21.77
2019-03-29T10:31:33.486Z,19.52
2019-03-29T10:34:01.934Z,19.37
2019-03-29T10:36:30.538Z,18.57
2019-03-29T10:38:58.987Z,16.73
2019-03-29T10:41:27.430Z,16.67
2019-03-29T10:43:55.887Z,16.48
2019-03-29T10:46:24.398Z,16.93
2019-03-29T10:48:52.851Z,17.52
2019-03-29T10:51:21.290Z,17.45
2019-03-29T10:53:49.747Z,17.73
2019-03-29T10:56:18.190Z,18.07
2019-03-29T10:58:46.696Z,16.52
2019-03-29T11:01:15.236Z,17.03
2019-03-29T11:03:43.694Z,13.68
2019-03-29T11:06:12.142Z,13.08
2019-03-29T11:08:43.461Z,14.50
2019-03-29T11:11:10.827Z,15.97
2019-03-29T11:13:40.988Z,14.75
2019-03-29T11:16:09.747Z,14.43
2019-03-29T11:18:38.190Z,14.80
2019-03-29T11:21:06.702Z,15.77
2019-03-29T11:23:35.173Z,15.48
2019-03-29T11:26:03.683Z,15.15
2019-03-29T11:28:32.147Z,15.50
2019-03-29T11:31:00.584Z,15.32
2019-03-29T11:33:29.041Z,14.78
2019-03-29T11:35:57.486Z,13.43
2019-03-29T11:38:25.935Z,14.93
2019-03-29T11:40:54.376Z,13.18
2019-03-29T11:43:27.161Z,13.72
2019-03-29T11:45:53.267Z,13.18
2019-03-29T11:48:21.722Z,14.70
2019-03-29T11:50:50.154Z,11.93
2019-03-29T11:53:18.614Z,12.82
2019-03-29T11:55:47.082Z,13.25
2019-03-29T11:58:15.634Z,14.03
2019-03-29T12:00:44.112Z,13.70
2019-03-29T12:03:13.554Z,14.15
2019-03-29T12:05:41.991Z,12.90
2019-03-29T12:08:10.675Z,13.55
2019-03-29T12:10:39.109Z,13.93
2019-03-29T12:13:08.921Z,13.25
2019-03-29T12:15:37.896Z,13.55
2019-03-29T12:18:06.431Z,13.25
2019-03-29T12:20:35.205Z,11.88
2019-03-29T12:23:03.737Z,12.73
2019-03-29T12:25:32.175Z,12.25
2019-03-29T12:28:00.636Z,12.93
2019-03-29T12:30:32.462Z,13.03
2019-03-29T12:32:59.308Z,12.85
2019-03-29T12:35:27.744Z,12.10
2019-03-29T12:37:56.208Z,13.25
2019-03-29T12:40:25.006Z,13.43
2019-03-29T12:42:53.437Z,12.63
2019-03-29T12:45:21.887Z,11.93
2019-03-29T12:47:50.316Z,11.40
2019-03-29T12:50:18.766Z,12.45
2019-03-29T12:52:47.197Z,12.10
2019-03-29T12:55:15.912Z,12.60
2019-03-29T12:57:44.350Z,11.28
2019-03-29T13:00:13.937Z,13.25
2019-03-29T13:06:09.253Z,10.33
2019-03-29T13:08:38.034Z,11.73
2019-03-29T13:11:06.823Z,11.93
2019-03-29T13:13:35.628Z,12.45
2019-03-29T13:16:04.130Z,12.82
2019-03-29T13:18:32.854Z,11.93
2019-03-29T13:21:01.308Z,11.95
2019-03-29T13:23:29.830Z,12.20
2019-03-29T13:25:58.282Z,11.90
2019-03-29T13:28:26.726Z,12.23
2019-03-29T13:30:55.183Z,11.30
2019-03-29T13:33:23.618Z,16.32
2019-03-29T13:35:52.086Z,13.70
2019-03-29T13:38:20.812Z,13.05
2019-03-29T13:40:49.486Z,13.65
2019-03-29T13:43:17.926Z,13.55
2019-03-29T13:45:46.362Z,13.28
2019-03-29T13:48:14.821Z,13.15
2019-03-29T13:50:43.274Z,13.48
2019-03-29T13:53:11.709Z,12.80
2019-03-29T13:55:40.158Z,12.30
2019-03-29T13:58:08.593Z,12.60
2019-03-29T14:00:37.042Z,13.05
2019-03-29T14:03:05.482Z,13.45
2019-03-29T14:05:33.949Z,12.25
2019-03-29T14:08:02.815Z,11.78
2019-03-29T14:10:31.249Z,11.90
2019-03-29T14:12:59.693Z,10.40
2019-03-29T14:15:28.212Z,11.57
2019-03-29T14:17:56.950Z,12.03
2019-03-29T14:20:32.770Z,12.20
2019-03-29T14:23:02.149Z,12.37
2019-03-29T14:25:30.590Z,11.73
2019-03-29T14:27:59.025Z,12.37
2019-03-29T14:30:27.472Z,12.58
2019-03-29T14:32:55.910Z,12.60
2019-03-29T14:35:24.363Z,13.22
2019-03-29T14:37:52.794Z,14.03
2019-03-29T14:40:21.257Z,11.80
2019-03-29T14:42:49.765Z,14.05
2019-03-29T14:45:18.274Z,12.10
2019-03-29T14:47:46.727Z,14.28
2019-03-29T14:50:15.231Z,12.90
2019-03-29T14:52:43.706Z,12.50
2019-03-29T14:55:12.282Z,11.83
2019-03-29T14:57:40.729Z,11.45
2019-03-29T15:00:12.182Z,12.13
2019-03-29T15:02:40.701Z,13.35
2019-03-29T15:05:09.377Z,12.28
2019-03-29T15:07:37.898Z,14.05
2019-03-29T15:10:08.749Z,11.97
2019-03-29T15:12:37.193Z,11.43
2019-03-29T15:15:08.651Z,12.63
2019-03-29T15:17:37.161Z,13.55
2019-03-29T15:20:06.846Z,13.20
2019-03-29T15:22:35.394Z,13.32
2019-03-29T15:25:04.454Z,12.93
2019-03-29T15:27:32.905Z,13.48
2019-03-29T15:30:01.338Z,14.13
2019-03-29T15:32:29.792Z,13.32
2019-03-29T15:34:58.248Z,13.40
2019-03-29T15:37:26.710Z,12.68
2019-03-29T15:39:55.150Z,14.13
2019-03-29T15:42:23.613Z,14.43
2019-03-29T15:44:52.109Z,15.25
2019-03-29T15:47:20.575Z,14.40
2019-03-29T15:49:55.701Z,14.13
2019-03-29T15:52:19.184Z,14.68
2019-03-29T15:54:47.693Z,14.15
2019-03-29T15:57:16.142Z,13.95
2019-03-29T15:59:44.573Z,14.60
2019-03-29T16:02:13.022Z,14.15
2019-03-29T16:04:41.453Z,13.98
2019-03-29T16:07:10.773Z,14.53
2019-03-29T16:09:39.219Z,15.13
2019-03-29T16:12:07.669Z,14.40
2019-03-29T16:14:36.376Z,14.65
2019-03-29T16:17:04.822Z,15.28
2019-03-29T16:19:33.257Z,14.55
2019-03-29T16:22:02.007Z,14.03
2019-03-29T16:24:30.433Z,15.72
2019-03-29T16:26:58.870Z,14.47
2019-03-29T16:29:27.320Z,15.83
2019-03-29T16:31:56.060Z,15.15
2019-03-29T16:34:24.522Z,14.15
2019-03-29T16:36:52.963Z,14.30
2019-03-29T16:39:21.429Z,14.53
2019-03-29T16:41:49.865Z,14.45
2019-03-29T16:44:18.313Z,14.83
2019-03-29T16:46:46.821Z,14.55
2019-03-29T16:49:15.350Z,15.03
2019-03-29T16:51:43.787Z,14.83
2019-03-29T16:54:12.237Z,14.90
2019-03-29T16:56:40.673Z,16.57
2019-03-29T16:59:09.454Z,14.47
2019-03-29T17:01:37.890Z,14.53
2019-03-29T17:04:06.406Z,15.93
2019-03-29T17:06:34.851Z,14.33
2019-03-29T17:09:04.773Z,16.17
2019-03-29T17:11:33.458Z,16.27
2019-03-29T17:14:01.905Z,17.45
2019-03-29T17:16:30.886Z,15.85
2019-03-29T17:18:59.741Z,15.30
2019-03-29T17:21:28.173Z,15.93
2019-03-29T17:23:56.621Z,16.15
2019-03-29T17:26:25.061Z,15.95
2019-03-29T17:28:53.509Z,16.48
2019-03-29T17:31:21.949Z,16.87
2019-03-29T17:33:50.402Z,16.37
2019-03-29T17:36:18.913Z,16.67
2019-03-29T17:38:47.361Z,17.42
2019-03-29T17:41:15.797Z,16.42
2019-03-29T17:43:44.251Z,15.68
2019-03-29T17:46:16.678Z,15.88
2019-03-29T17:48:42.856Z,19.95
2019-03-29T17:51:11.565Z,15.85
2019-03-29T17:53:40.263Z,17.23
2019-03-29T17:56:08.701Z,16.55
2019-03-29T17:58:37.165Z,19.15
2019-03-29T18:01:05.601Z,16.97
2019-03-29T18:03:34.109Z,19.30
2019-03-29T18:06:02.563Z,17.90
2019-03-29T18:08:30.987Z,17.57
2019-03-29T18:10:59.432Z,19.10
2019-03-29T18:13:27.894Z,18.23
2019-03-29T18:15:56.336Z,19.25
2019-03-29T18:18:24.786Z,22.40
2019-03-29T18:20:53.221Z,17.92
2019-03-29T18:23:24.797Z,21.75
2019-03-29T18:25:52.108Z,20.97
2019-03-29T18:28:20.554Z,23.90
2019-03-29T18:30:48.990Z,19.05
2019-03-29T18:33:17.569Z,16.75
2019-03-29T18:35:46.396Z,18.77
2019-03-29T18:38:14.829Z,16.97
2019-03-29T18:40:43.274Z,18.73
2019-03-29T18:43:11.709Z,18.05
2019-03-29T18:45:41.725Z,20.25
2019-03-29T18:48:10.476Z,18.57
2019-03-29T18:50:38.925Z,19.70
2019-03-29T18:53:07.359Z,20.65
2019-03-29T18:55:35.811Z,17.25
2019-03-29T18:58:05.893Z,18.80
2019-03-29T19:00:35.185Z,22.20
2019-03-29T19:03:04.364Z,20.02
2019-03-29T19:05:33.322Z,18.05
2019-03-29T19:08:01.826Z,17.95
2019-03-29T19:10:30.341Z,19.75
2019-03-29T19:12:58.781Z,21.05
2019-03-29T19:15:27.301Z,21.30
2019-03-29T19:17:55.738Z,18.50
2019-03-29T19:20:28.009Z,19.35
2019-03-29T19:22:54.917Z,20.68
2019-03-29T19:25:23.460Z,19.30
2019-03-29T19:27:51.958Z,20.90
2019-03-29T19:30:20.960Z,23.10
2019-03-29T19:32:49.401Z,20.32
2019-03-29T19:35:17.870Z,19.55
2019-03-29T19:37:46.625Z,21.75
2019-03-29T19:40:15.309Z,21.05
2019-03-29T19:42:43.744Z,21.50
2019-03-29T19:45:12.458Z,20.85
2019-03-29T19:47:40.893Z,19.10
2019-03-29T19:50:09.921Z,19.42
2019-03-29T19:52:38.358Z,19.85
2019-03-29T19:55:06.989Z,19.98
2019-03-29T19:57:35.790Z,21.80
2019-03-29T20:00:07.585Z,18.55
2019-03-29T20:02:36.108Z,19.30
2019-03-29T20:05:05.969Z,19.35
2019-03-29T20:07:34.482Z,21.73
2019-03-29T20:10:02.930Z,21.52
2019-03-29T20:12:31.365Z,19.87
2019-03-29T20:14:59.846Z,20.60
2019-03-29T20:17:28.269Z,20.43
2019-03-29T20:19:59.529Z,18.40
2019-03-29T20:22:27.962Z,19.40
2019-03-29T20:24:56.433Z,21.77
2019-03-29T20:27:24.879Z,22.22
2019-03-29T20:29:53.380Z,18.80
2019-03-29T20:32:21.812Z,22.90
2019-03-29T20:34:50.758Z,22.73
2019-03-29T20:37:19.338Z,21.80
2019-03-29T20:39:47.770Z,19.10
2019-03-29T20:42:16.229Z,20.68
2019-03-29T20:44:45.065Z,25.10
2019-03-29T20:47:13.765Z,21.27
2019-03-29T20:49:42.269Z,22.70
2019-03-29T20:52:10.836Z,21.85
2019-03-29T20:54:39.887Z,22.52
2019-03-29T20:57:08.388Z,21.48
2019-03-29T20:59:36.894Z,19.82
2019-03-29T21:02:05.992Z,19.70
2019-03-29T21:04:34.678Z,22.48
2019-03-29T21:07:03.454Z,21.40
2019-03-29T21:09:32.246Z,22.58
2019-03-29T21:12:00.706Z,21.85
2019-03-29T21:14:29.141Z,24.05
2019-03-29T21:16:57.834Z,29.70
2019-03-29T21:19:26.281Z,25.35
2019-03-29T21:21:55.084Z,25.97
2019-03-29T21:24:23.653Z,25.23
2019-03-29T21:26:52.258Z,26.97
2019-03-29T21:29:20.838Z,25.70
2019-03-29T21:31:49.346Z,25.90
2019-03-29T21:34:17.777Z,21.37
2019-03-29T21:36:46.237Z,20.20
2019-03-29T21:39:15.010Z,27.90
2019-03-29T21:41:43.475Z,24.85
2019-03-29T21:44:11.908Z,24.75
2019-03-29T21:46:40.354Z,24.55
2019-03-29T21:49:08.784Z,27.80
2019-03-29T21:51:37.246Z,25.20
2019-03-29T21:54:05.679Z,22.85
2019-03-29T21:56:34.145Z,23.67
2019-03-29T21:59:02.577Z,22.52
2019-03-29T22:01:31.362Z,24.92
2019-03-29T22:03:59.793Z,23.70
2019-03-29T22:06:28.237Z,23.30
2019-03-29T22:08:56.677Z,24.98
2019-03-29T22:11:25.113Z,22.37
2019-03-29T22:13:53.613Z,23.07
2019-03-29T22:16:22.060Z,22.15
2019-03-29T22:18:50.494Z,21.35
2019-03-29T22:21:18.954Z,23.60
2019-03-29T22:23:47.658Z,23.00
2019-03-29T22:26:16.104Z,23.98
2019-03-29T22:28:44.537Z,24.80
2019-03-29T22:31:12.973Z,22.75
2019-03-29T22:33:41.406Z,24.85
2019-03-29T22:36:09.841Z,28.95
2019-03-29T22:38:38.291Z,26.30
2019-03-29T22:41:06.719Z,23.95
2019-03-29T22:43:35.162Z,24.45
2019-03-29T22:46:03.594Z,26.70
2019-03-29T22:48:32.069Z,25.72
2019-03-29T22:51:00.497Z,27.60
2019-03-29T22:53:28.940Z,30.02
2019-03-29T22:55:57.933Z,26.87
2019-03-29T22:58:28.414Z,25.52
2019-03-29T23:00:57.441Z,26.07
2019-03-29T23:03:25.889Z,25.25
2019-03-29T23:05:54.318Z,27.37
2019-03-29T23:08:22.766Z,31.27
2019-03-29T23:10:51.197Z,27.35
2019-03-29T23:13:19.646Z,24.27
2019-03-29T23:15:48.081Z,22.85
2019-03-29T23:18:16.538Z,23.40
2019-03-29T23:20:45.046Z,27.35
2019-03-29T23:23:13.501Z,22.98
2019-03-29T23:25:41.934Z,22.50
2019-03-29T23:28:10.677Z,23.75
2019-03-29T23:30:39.115Z,22.65
2019-03-29T23:33:07.556Z,27.13
2019-03-29T23:35:36.063Z,25.20
2019-03-29T23:38:04.501Z,27.40
2019-03-29T23:40:33.007Z,30.37
2019-03-29T23:43:01.449Z,27.32
2019-03-29T23:45:29.882Z,25.40
2019-03-29T23:47:58.332Z,31.17
2019-03-29T23:50:26.765Z,26.52
2019-03-29T23:52:55.805Z,23.77
2019-03-29T23:55:25.046Z,28.62
2019-03-29T23:57:53.521Z,28.73
